Terminal Aerodrome Forecast
Issued by NWS Missoula, MT

Home | Current Version | Previous Version | Text Only | Print | Product List | Glossary On
Versions: 1 2 3 4 5 6 7 8 9 10 11 12 13 14
000
FTUS45 KMSO 160500
TAFMSO
TAF
KMSO 160522Z 1606/1706 30007KT P6SM VCSH BKN060 OVC070
     FM160800 VRB04KT P6SM SCT050 BKN100
     FM161400 29006KT P6SM BKN050 BKN080=

USA.gov is the U.S. government's official web portal to all federal, state and local government web resources and services.